sensor_id;sensor_type;location;lat;lon;timestamp;pressure;altitude;pressure_sealevel;temperature;humidity
60437;BME280;46289;51.992;4.498;2023-05-19T00:01:46;102978.97;;;8.94;80.91
60437;BME280;46289;51.992;4.498;2023-05-19T00:03:54;102975.47;;;8.95;80.90
60437;BME280;46289;51.992;4.498;2023-05-19T00:06:01;102978.09;;;8.95;80.92
60437;BME280;46289;51.992;4.498;2023-05-19T00:08:07;102979.84;;;8.88;81.34
60437;BME280;46289;51.992;4.498;2023-05-19T00:10:16;102977.22;;;8.85;81.80
60437;BME280;46289;51.992;4.498;2023-05-19T00:12:22;102973.75;;;8.85;81.87
60437;BME280;46289;51.992;4.498;2023-05-19T00:14:30;102977.22;;;8.81;82.06
60437;BME280;46289;51.992;4.498;2023-05-19T00:16:39;102967.59;;;8.75;82.37
60437;BME280;46289;51.992;4.498;2023-05-19T00:18:47;102967.59;;;8.72;82.37
60437;BME280;46289;51.992;4.498;2023-05-19T00:20:56;102963.22;;;8.75;81.82
60437;BME280;46289;51.992;4.498;2023-05-19T00:23:02;102966.75;;;8.82;81.60
60437;BME280;46289;51.992;4.498;2023-05-19T00:25:08;102975.47;;;8.75;81.80
60437;BME280;46289;51.992;4.498;2023-05-19T00:27:13;102977.22;;;8.73;82.12
60437;BME280;46289;51.992;4.498;2023-05-19T00:29:21;102969.34;;;8.73;81.86
60437;BME280;46289;51.992;4.498;2023-05-19T00:31:29;102977.22;;;8.74;82.08
60437;BME280;46289;51.992;4.498;2023-05-19T00:33:35;102969.34;;;8.73;82.34
60437;BME280;46289;51.992;4.498;2023-05-19T00:35:43;102977.22;;;8.77;81.83
60437;BME280;46289;51.992;4.498;2023-05-19T00:37:50;102972.81;;;8.69;82.49
60437;BME280;46289;51.992;4.498;2023-05-19T00:39:55;102981.56;;;8.65;82.80
60437;BME280;46289;51.992;4.498;2023-05-19T00:42:04;102976.31;;;8.63;82.75
60437;BME280;46289;51.992;4.498;2023-05-19T00:44:09;102974.56;;;8.68;82.51
60437;BME280;46289;51.992;4.498;2023-05-19T00:46:14;102973.72;;;8.69;82.31
60437;BME280;46289;51.992;4.498;2023-05-19T00:48:20;102978.06;;;8.63;83.04
60437;BME280;46289;51.992;4.498;2023-05-19T00:50:26;102978.91;;;8.63;82.82
60437;BME280;46289;51.992;4.498;2023-05-19T00:52:34;102979.81;;;8.64;82.82
60437;BME280;46289;51.992;4.498;2023-05-19T00:54:40;102972.78;;;8.58;82.84
60437;BME280;46289;51.992;4.498;2023-05-19T00:56:45;102974.53;;;8.53;83.29
60437;BME280;46289;51.992;4.498;2023-05-19T00:58:52;102970.19;;;8.49;83.58
60437;BME280;46289;51.992;4.498;2023-05-19T01:00:59;102967.56;;;8.46;83.17
60437;BME280;46289;51.992;4.498;2023-05-19T01:03:08;102965.78;;;8.45;82.90
60437;BME280;46289;51.992;4.498;2023-05-19T01:05:16;102966.66;;;8.44;83.51
60437;BME280;46289;51.992;4.498;2023-05-19T01:07:22;102964.03;;;8.41;83.28
60437;BME280;46289;51.992;4.498;2023-05-19T01:09:31;102969.25;;;8.39;83.50
60437;BME280;46289;51.992;4.498;2023-05-19T01:11:39;102960.50;;;8.39;83.22
60437;BME280;46289;51.992;4.498;2023-05-19T01:13:45;102965.78;;;8.42;83.31
60437;BME280;46289;51.992;4.498;2023-05-19T01:15:58;102965.72;;;8.37;83.50
60437;BME280;46289;51.992;4.498;2023-05-19T01:18:07;102968.34;;;8.32;83.65
60437;BME280;46289;51.992;4.498;2023-05-19T01:20:21;102960.47;;;8.26;84.01
60437;BME280;46289;51.992;4.498;2023-05-19T01:30:42;102951.69;;;8.13;84.48
60437;BME280;46289;51.992;4.498;2023-05-19T01:32:48;102956.94;;;8.12;84.33
60437;BME280;46289;51.992;4.498;2023-05-19T01:34:56;102952.56;;;8.11;84.71
60437;BME280;46289;51.992;4.498;2023-05-19T01:37:02;102957.81;;;8.11;84.73
60437;BME280;46289;51.992;4.498;2023-05-19T01:39:07;102953.44;;;8.10;84.68
60437;BME280;46289;51.992;4.498;2023-05-19T01:41:13;102961.28;;;8.07;85.19
60437;BME280;46289;51.992;4.498;2023-05-19T01:43:24;102951.63;;;8.03;84.71
60437;BME280;46289;51.992;4.498;2023-05-19T01:45:33;102949.88;;;8.00;84.93
60437;BME280;46289;51.992;4.498;2023-05-19T01:47:47;102949.00;;;8.00;84.93
60437;BME280;46289;51.992;4.498;2023-05-19T01:49:58;102948.13;;;7.98;85.25
60437;BME280;46289;51.992;4.498;2023-05-19T01:52:04;102949.00;;;7.97;85.23
60437;BME280;46289;51.992;4.498;2023-05-19T01:54:09;102953.38;;;7.98;85.44
60437;BME280;46289;51.992;4.498;2023-05-19T01:56:19;102945.53;;;7.96;85.77
60437;BME280;46289;51.992;4.498;2023-05-19T01:58:37;102942.88;;;7.95;85.50
60437;BME280;46289;51.992;4.498;2023-05-19T02:00:51;102938.50;;;7.95;85.43
60437;BME280;46289;51.992;4.498;2023-05-19T02:03:07;102930.69;;;7.94;85.86
60437;BME280;46289;51.992;4.498;2023-05-19T02:05:24;102924.56;;;7.91;85.72
60437;BME280;46289;51.992;4.498;2023-05-19T02:07:40;102922.78;;;7.86;85.35
60437;BME280;46289;51.992;4.498;2023-05-19T02:09:52;102923.63;;;7.80;85.52
60437;BME280;46289;51.992;4.498;2023-05-19T02:12:08;102934.09;;;7.80;86.03
60437;BME280;46289;51.992;4.498;2023-05-19T02:14:19;102924.50;;;7.79;86.06
60437;BME280;46289;51.992;4.498;2023-05-19T02:16:31;102924.47;;;7.76;86.91
60437;BME280;46289;51.992;4.498;2023-05-19T02:18:40;102928.88;;;7.77;86.42
60437;BME280;46289;51.992;4.498;2023-05-19T02:20:47;102934.06;;;7.73;86.50
60437;BME280;46289;51.992;4.498;2023-05-19T02:22:57;102928.84;;;7.74;86.48
60437;BME280;46289;51.992;4.498;2023-05-19T02:25:02;102927.97;;;7.75;86.58
60437;BME280;46289;51.992;4.498;2023-05-19T02:27:07;102924.47;;;7.72;86.59
60437;BME280;46289;51.992;4.498;2023-05-19T02:29:13;102930.56;;;7.74;86.39
60437;BME280;46289;51.992;4.498;2023-05-19T02:31:18;102931.47;;;7.74;86.68
60437;BME280;46289;51.992;4.498;2023-05-19T02:33:29;102923.56;;;7.68;86.48
60437;BME280;46289;51.992;4.498;2023-05-19T02:35:39;102927.06;;;7.64;86.33
60437;BME280;46289;51.992;4.498;2023-05-19T02:37:44;102925.25;;;7.57;87.10
60437;BME280;46289;51.992;4.498;2023-05-19T02:39:52;102925.25;;;7.54;86.17
60437;BME280;46289;51.992;4.498;2023-05-19T02:41:57;102924.38;;;7.52;86.17
60437;BME280;46289;51.992;4.498;2023-05-19T02:44:02;102926.94;;;7.45;86.82
60437;BME280;46289;51.992;4.498;2023-05-19T02:46:08;102926.03;;;7.40;87.84
60437;BME280;46289;51.992;4.498;2023-05-19T02:48:13;102918.13;;;7.34;87.09
60437;BME280;46289;51.992;4.498;2023-05-19T02:50:22;102918.13;;;7.34;86.94
60437;BME280;46289;51.992;4.498;2023-05-19T02:52:30;102922.53;;;7.35;87.17
60437;BME280;46289;51.992;4.498;2023-05-19T02:54:35;102914.69;;;7.35;86.92
60437;BME280;46289;51.992;4.498;2023-05-19T02:56:40;102911.19;;;7.35;87.20
60437;BME280;46289;51.992;4.498;2023-05-19T02:58:45;102915.53;;;7.34;87.38
60437;BME280;46289;51.992;4.498;2023-05-19T03:00:54;102915.53;;;7.34;87.49
60437;BME280;46289;51.992;4.498;2023-05-19T03:03:00;102913.78;;;7.30;87.43
60437;BME280;46289;51.992;4.498;2023-05-19T03:05:07;102915.50;;;7.31;87.83
60437;BME280;46289;51.992;4.498;2023-05-19T03:07:13;102913.78;;;7.30;87.71
60437;BME280;46289;51.992;4.498;2023-05-19T03:09:25;102906.78;;;7.29;87.92
60437;BME280;46289;51.992;4.498;2023-05-19T03:11:31;102910.25;;;7.28;88.27
60437;BME280;46289;51.992;4.498;2023-05-19T03:13:36;102908.53;;;7.29;88.13
60437;BME280;46289;51.992;4.498;2023-05-19T03:15:45;102905.88;;;7.25;87.92
60437;BME280;46289;51.992;4.498;2023-05-19T03:17:52;102903.31;;;7.27;88.37
60437;BME280;46289;51.992;4.498;2023-05-19T03:19:58;102904.16;;;7.29;88.06
60437;BME280;46289;51.992;4.498;2023-05-19T03:22:03;102909.41;;;7.28;87.97
60437;BME280;46289;51.992;4.498;2023-05-19T03:24:08;102905.88;;;7.25;88.04
60437;BME280;46289;51.992;4.498;2023-05-19T03:26:16;102905.88;;;7.22;88.60
60437;BME280;46289;51.992;4.498;2023-05-19T03:28:26;102903.25;;;7.21;88.66
60437;BME280;46289;51.992;4.498;2023-05-19T03:30:32;102895.38;;;7.16;88.86
60437;BME280;46289;51.992;4.498;2023-05-19T03:32:43;102893.56;;;7.11;88.94
60437;BME280;46289;51.992;4.498;2023-05-19T03:34:52;102896.19;;;7.09;88.58
60437;BME280;46289;51.992;4.498;2023-05-19T03:36:57;102895.31;;;7.07;88.67
60437;BME280;46289;51.992;4.498;2023-05-19T03:39:02;102893.53;;;7.04;88.48
60437;BME280;46289;51.992;4.498;2023-05-19T03:41:07;102895.28;;;7.04;88.65
60437;BME280;46289;51.992;4.498;2023-05-19T03:43:15;102894.41;;;7.02;88.99
60437;BME280;46289;51.992;4.498;2023-05-19T03:45:23;102894.34;;;6.97;89.50
60437;BME280;46289;51.992;4.498;2023-05-19T03:47:30;102897.88;;;6.99;89.22
60437;BME280;46289;51.992;4.498;2023-05-19T03:49:35;102901.34;;;6.98;89.39
60437;BME280;46289;51.992;4.498;2023-05-19T03:51:40;102899.59;;;6.96;89.44
60437;BME280;46289;51.992;4.498;2023-05-19T03:53:46;102901.34;;;6.95;89.02
60437;BME280;46289;51.992;4.498;2023-05-19T03:55:52;102903.97;;;7.00;89.44
60437;BME280;46289;51.992;4.498;2023-05-19T03:57:57;102908.34;;;7.01;89.35
60437;BME280;46289;51.992;4.498;2023-05-19T04:00:07;102907.47;;;7.05;90.30
60437;BME280;46289;51.992;4.498;2023-05-19T04:02:13;102905.75;;;7.04;89.51
60437;BME280;46289;51.992;4.498;2023-05-19T04:04:18;102909.22;;;7.01;90.24
60437;BME280;46289;51.992;4.498;2023-05-19T04:06:28;102906.63;;;7.03;89.91
60437;BME280;46289;51.992;4.498;2023-05-19T04:08:34;102899.66;;;7.07;89.68
60437;BME280;46289;51.992;4.498;2023-05-19T04:10:40;102905.78;;;7.09;90.45
60437;BME280;46289;51.992;4.498;2023-05-19T04:12:47;102907.59;;;7.19;90.07
60437;BME280;46289;51.992;4.498;2023-05-19T04:14:57;102900.63;;;7.19;89.98
60437;BME280;46289;51.992;4.498;2023-05-19T04:17:04;102905.91;;;7.29;90.01
60437;BME280;46289;51.992;4.498;2023-05-19T04:19:09;102903.28;;;7.29;89.89
60437;BME280;46289;51.992;4.498;2023-05-19T04:21:15;102913.75;;;7.32;90.39
60437;BME280;46289;51.992;4.498;2023-05-19T04:23:23;102913.78;;;7.30;90.37
60437;BME280;46289;51.992;4.498;2023-05-19T04:25:29;102915.50;;;7.31;90.52
60437;BME280;46289;51.992;4.498;2023-05-19T04:27:39;102914.69;;;7.38;90.27
60437;BME280;46289;51.992;4.498;2023-05-19T04:29:45;102918.19;;;7.39;90.20
60437;BME280;46289;51.992;4.498;2023-05-19T04:31:52;102921.69;;;7.41;90.14
60437;BME280;46289;51.992;4.498;2023-05-19T04:34:00;102919.03;;;7.39;90.48
60437;BME280;46289;51.992;4.498;2023-05-19T04:36:07;102921.72;;;7.47;90.35
60437;BME280;46289;51.992;4.498;2023-05-19T04:38:12;102921.75;;;7.52;90.16
60437;BME280;46289;51.992;4.498;2023-05-19T04:40:21;102916.53;;;7.53;90.18
60437;BME280;46289;51.992;4.498;2023-05-19T04:42:27;102921.78;;;7.58;89.91
60437;BME280;46289;51.992;4.498;2023-05-19T04:44:33;102913.06;;;7.60;90.32
60437;BME280;46289;51.992;4.498;2023-05-19T04:46:39;102913.97;;;7.68;90.25
60437;BME280;46289;51.992;4.498;2023-05-19T04:48:46;102912.25;;;7.74;90.08
60437;BME280;46289;51.992;4.498;2023-05-19T04:50:56;102916.69;;;7.82;90.09
60437;BME280;46289;51.992;4.498;2023-05-19T04:53:02;102912.34;;;7.97;89.45
60437;BME280;46289;51.992;4.498;2023-05-19T04:55:08;102921.13;;;8.06;89.29
60437;BME280;46289;51.992;4.498;2023-05-19T04:57:15;102923.75;;;8.16;89.24
60437;BME280;46289;51.992;4.498;2023-05-19T04:59:21;102923.81;;;8.29;88.87
60437;BME280;46289;51.992;4.498;2023-05-19T05:01:27;102927.38;;;8.45;88.92
60437;BME280;46289;51.992;4.498;2023-05-19T05:03:34;102923.03;;;8.61;88.40
60437;BME280;46289;51.992;4.498;2023-05-19T05:05:39;102923.91;;;8.78;87.34
60437;BME280;46289;51.992;4.498;2023-05-19T05:07:47;102918.66;;;8.94;87.07
60437;BME280;46289;51.992;4.498;2023-05-19T05:09:55;102928.28;;;9.12;86.72
60437;BME280;46289;51.992;4.498;2023-05-19T05:12:01;102924.75;;;9.23;86.08
60437;BME280;46289;51.992;4.498;2023-05-19T05:14:10;102922.09;;;9.39;85.73
60437;BME280;46289;51.992;4.498;2023-05-19T05:16:16;102929.94;;;9.57;85.73
60437;BME280;46289;51.992;4.498;2023-05-19T05:18:24;102926.34;;;9.77;84.99
60437;BME280;46289;51.992;4.498;2023-05-19T05:20:32;102929.00;;;9.80;84.04
60437;BME280;46289;51.992;4.498;2023-05-19T05:22:38;102924.56;;;9.96;83.91
60437;BME280;46289;51.992;4.498;2023-05-19T05:24:50;102923.56;;;10.17;83.01
60437;BME280;46289;51.992;4.498;2023-05-19T05:26:57;102927.00;;;10.34;82.43
60437;BME280;46289;51.992;4.498;2023-05-19T05:29:02;102930.44;;;10.44;81.56
60437;BME280;46289;51.992;4.498;2023-05-19T05:31:08;102921.56;;;10.62;81.79
60437;BME280;46289;51.992;4.498;2023-05-19T05:33:13;102931.25;;;10.50;81.03
60437;BME280;46289;51.992;4.498;2023-05-19T05:35:23;102938.22;;;10.64;81.38
60437;BME280;46289;51.992;4.498;2023-05-19T05:37:29;102936.47;;;10.64;80.08
60437;BME280;46289;51.992;4.498;2023-05-19T05:39:35;102936.44;;;10.67;80.01
60437;BME280;46289;51.992;4.498;2023-05-19T05:41:42;102932.78;;;10.85;80.27
60437;BME280;46289;51.992;4.498;2023-05-19T05:43:47;102929.16;;;10.98;79.93
60437;BME280;46289;51.992;4.498;2023-05-19T05:45:55;102929.94;;;11.08;79.25
60437;BME280;46289;51.992;4.498;2023-05-19T05:48:01;102924.59;;;11.16;78.78
60437;BME280;46289;51.992;4.498;2023-05-19T05:50:08;102931.63;;;11.15;78.65
60437;BME280;46289;51.992;4.498;2023-05-19T05:52:14;102926.22;;;11.31;77.89
60437;BME280;46289;51.992;4.498;2023-05-19T05:54:23;102928.72;;;11.45;78.08
60437;BME280;46289;51.992;4.498;2023-05-19T05:56:32;102929.41;;;11.62;77.25
60437;BME280;46289;51.992;4.498;2023-05-19T05:58:43;102929.19;;;11.79;77.00
60437;BME280;46289;51.992;4.498;2023-05-19T06:00:52;102920.88;;;11.37;76.76
60437;BME280;46289;51.992;4.498;2023-05-19T06:02:58;102912.41;;;11.07;77.89
60437;BME280;46289;51.992;4.498;2023-05-19T06:05:04;102919.53;;;10.96;78.39
60437;BME280;46289;51.992;4.498;2023-05-19T06:07:12;102927.19;;;11.20;78.40
60437;BME280;46289;51.992;4.498;2023-05-19T06:11:35;102923.72;;;11.99;76.75
60437;BME280;46289;51.992;4.498;2023-05-19T06:13:43;102922.25;;;12.40;75.57
60437;BME280;46289;51.992;4.498;2023-05-19T06:15:48;102924.53;;;12.64;74.21
60437;BME280;46289;51.992;4.498;2023-05-19T06:18:01;102921.97;;;12.60;73.27
60437;BME280;46289;51.992;4.498;2023-05-19T06:20:08;102918.41;;;12.61;72.97
60437;BME280;46289;51.992;4.498;2023-05-19T06:22:14;102921.97;;;12.58;73.15
60437;BME280;46289;51.992;4.498;2023-05-19T06:24:26;102913.81;;;12.75;72.41
60437;BME280;46289;51.992;4.498;2023-05-19T06:26:32;102915.47;;;12.82;71.93
60437;BME280;46289;51.992;4.498;2023-05-19T06:28:37;102915.38;;;12.87;72.25
60437;BME280;46289;51.992;4.498;2023-05-19T06:30:45;102916.88;;;13.02;71.15
60437;BME280;46289;51.992;4.498;2023-05-19T06:32:53;102923.81;;;13.09;71.04
60437;BME280;46289;51.992;4.498;2023-05-19T06:34:58;102921.69;;;13.29;70.25
60437;BME280;46289;51.992;4.498;2023-05-19T06:37:03;102928.28;;;13.04;69.78
60437;BME280;46289;51.992;4.498;2023-05-19T06:39:08;102927.06;;;13.23;70.25
60437;BME280;46289;51.992;4.498;2023-05-19T06:41:14;102917.72;;;13.53;69.37
60437;BME280;46289;51.992;4.498;2023-05-19T06:43:22;102919.25;;;13.65;69.07
60437;BME280;46289;51.992;4.498;2023-05-19T06:45:30;102916.06;;;13.91;68.35
60437;BME280;46289;51.992;4.498;2023-05-19T06:47:38;102923.75;;;14.03;67.95
60437;BME280;46289;51.992;4.498;2023-05-19T06:49:46;102926.31;;;14.07;67.17
60437;BME280;46289;51.992;4.498;2023-05-19T06:51:56;102920.28;;;14.40;67.12
60437;BME280;46289;51.992;4.498;2023-05-19T06:54:01;102918.25;;;14.13;66.30
60437;BME280;46289;51.992;4.498;2023-05-19T06:56:06;102920.69;;;14.22;66.30
60437;BME280;46289;51.992;4.498;2023-05-19T06:58:11;102924.03;;;14.30;65.82
60437;BME280;46289;51.992;4.498;2023-05-19T07:00:19;102924.63;;;14.43;67.00
60437;BME280;46289;51.992;4.498;2023-05-19T07:02:27;102921.75;;;14.50;66.13
60437;BME280;46289;51.992;4.498;2023-05-19T07:04:38;102919.19;;;14.47;65.88
60437;BME280;46289;51.992;4.498;2023-05-19T07:06:44;102923.41;;;14.58;64.85
60437;BME280;46289;51.992;4.498;2023-05-19T07:08:55;102919.88;;;14.59;65.42
60437;BME280;46289;51.992;4.498;2023-05-19T07:11:00;102925.19;;;14.57;65.41
60437;BME280;46289;51.992;4.498;2023-05-19T07:13:05;102917.50;;;14.82;65.44
60437;BME280;46289;51.992;4.498;2023-05-19T07:15:10;102914.72;;;14.88;64.82
60437;BME280;46289;51.992;4.498;2023-05-19T07:17:15;102916.31;;;14.60;64.39
60437;BME280;46289;51.992;4.498;2023-05-19T07:19:25;102909.41;;;14.88;64.28
60437;BME280;46289;51.992;4.498;2023-05-19T07:21:34;102914.53;;;14.96;64.32
60437;BME280;46289;51.992;4.498;2023-05-19T07:23:41;102922.81;;;15.17;63.39
60437;BME280;46289;51.992;4.498;2023-05-19T07:25:47;102922.69;;;15.21;63.39
60437;BME280;46289;51.992;4.498;2023-05-19T07:27:53;102911.59;;;15.72;62.48
60437;BME280;46289;51.992;4.498;2023-05-19T07:29:59;102914.91;;;16.09;62.03
60437;BME280;46289;51.992;4.498;2023-05-19T07:32:06;102911.94;;;16.19;61.26
60437;BME280;46289;51.992;4.498;2023-05-19T07:34:10;102905.44;;;15.72;60.77
60437;BME280;46289;51.992;4.498;2023-05-19T07:36:16;102910.63;;;16.05;60.95
60437;BME280;46289;51.992;4.498;2023-05-19T07:38:26;102909.56;;;16.10;59.58
60437;BME280;46289;51.992;4.498;2023-05-19T07:40:32;102899.34;;;16.26;58.85
60437;BME280;46289;51.992;4.498;2023-05-19T07:42:37;102897.16;;;16.39;58.94
60437;BME280;46289;51.992;4.498;2023-05-19T07:44:42;102903.25;;;16.42;59.21
60437;BME280;46289;51.992;4.498;2023-05-19T07:46:47;102893.03;;;16.30;57.99
60437;BME280;46289;51.992;4.498;2023-05-19T07:48:52;102900.94;;;16.04;58.69
60437;BME280;46289;51.992;4.498;2023-05-19T07:50:58;102899.00;;;16.09;57.85
60437;BME280;46289;51.992;4.498;2023-05-19T07:53:03;102899.47;;;16.21;57.07
60437;BME280;46289;51.992;4.498;2023-05-19T07:55:11;102899.31;;;16.28;57.13
60437;BME280;46289;51.992;4.498;2023-05-19T07:57:16;102893.75;;;16.35;57.24
60437;BME280;46289;51.992;4.498;2023-05-19T07:59:23;102890.34;;;16.58;55.59
60437;BME280;46289;51.992;4.498;2023-05-19T08:01:28;102900.59;;;16.42;54.69
60437;BME280;46289;51.992;4.498;2023-05-19T08:03:34;102889.00;;;16.72;55.02
60437;BME280;46289;51.992;4.498;2023-05-19T08:05:39;102884.97;;;16.88;53.25
60437;BME280;46289;51.992;4.498;2023-05-19T08:07:44;102886.69;;;16.89;53.90
60437;BME280;46289;51.992;4.498;2023-05-19T08:09:49;102889.31;;;16.91;54.62
60437;BME280;46289;51.992;4.498;2023-05-19T08:11:58;102889.78;;;17.27;54.86
60437;BME280;46289;51.992;4.498;2023-05-19T08:14:03;102892.09;;;17.85;51.21
60437;BME280;46289;51.992;4.498;2023-05-19T08:16:08;102880.34;;;17.90;49.68
60437;BME280;46289;51.992;4.498;2023-05-19T08:18:14;102881.13;;;18.16;49.53
60437;BME280;46289;51.992;4.498;2023-05-19T08:20:22;102879.97;;;18.23;49.82
60437;BME280;46289;51.992;4.498;2023-05-19T08:22:27;102872.50;;;18.75;49.28
60437;BME280;46289;51.992;4.498;2023-05-19T08:24:36;102878.38;;;18.61;49.88
60437;BME280;46289;51.992;4.498;2023-05-19T08:26:44;102875.69;;;18.61;49.64
60437;BME280;46289;51.992;4.498;2023-05-19T08:28:52;102868.66;;;18.60;48.68
60437;BME280;46289;51.992;4.498;2023-05-19T08:30:57;102865.84;;;18.63;48.44
60437;BME280;46289;51.992;4.498;2023-05-19T08:33:03;102860.16;;;18.73;48.85
60437;BME280;46289;51.992;4.498;2023-05-19T08:35:08;102862.47;;;18.60;47.37
60437;BME280;46289;51.992;4.498;2023-05-19T08:37:13;102867.16;;;18.53;48.27
60437;BME280;46289;51.992;4.498;2023-05-19T08:39:23;102857.16;;;18.60;47.87
60437;BME280;46289;51.992;4.498;2023-05-19T08:41:29;102859.00;;;18.58;48.45
60437;BME280;46289;51.992;4.498;2023-05-19T08:43:34;102858.59;;;17.81;47.19
60437;BME280;46289;51.992;4.498;2023-05-19T08:45:44;102857.56;;;18.07;47.56
60437;BME280;46289;51.992;4.498;2023-05-19T08:47:52;102852.31;;;18.48;47.07
60437;BME280;46289;51.992;4.498;2023-05-19T08:50:03;102848.97;;;18.42;45.85
60437;BME280;46289;51.992;4.498;2023-05-19T08:52:18;102849.69;;;18.68;46.70
60437;BME280;46289;51.992;4.498;2023-05-19T08:54:30;102841.88;;;18.85;45.15
60437;BME280;46289;51.992;4.498;2023-05-19T08:56:42;102839.06;;;19.09;44.64
60437;BME280;46289;51.992;4.498;2023-05-19T08:58:52;102832.66;;;19.13;45.02
60437;BME280;46289;51.992;4.498;2023-05-19T09:01:03;102833.91;;;18.85;44.47
60437;BME280;46289;51.992;4.498;2023-05-19T09:03:09;102844.47;;;18.87;44.61
60437;BME280;46289;51.992;4.498;2023-05-19T09:05:18;102836.78;;;19.20;43.79
60437;BME280;46289;51.992;4.498;2023-05-19T09:07:30;102838.78;;;19.73;43.36
60437;BME280;46289;51.992;4.498;2023-05-19T09:09:39;102839.75;;;20.09;42.30
60437;BME280;46289;51.992;4.498;2023-05-19T09:11:45;102833.28;;;20.14;41.41
60437;BME280;46289;51.992;4.498;2023-05-19T09:13:50;102842.09;;;20.34;39.54
60437;BME280;46289;51.992;4.498;2023-05-19T09:15:56;102839.19;;;20.02;38.35
60437;BME280;46289;51.992;4.498;2023-05-19T09:18:11;102834.81;;;20.01;39.22
60437;BME280;46289;51.992;4.498;2023-05-19T09:20:16;102835.56;;;19.86;40.15
60437;BME280;46289;51.992;4.498;2023-05-19T09:22:23;102828.69;;;20.35;40.00
60437;BME280;46289;51.992;4.498;2023-05-19T09:24:28;102832.31;;;20.15;39.01
60437;BME280;46289;51.992;4.498;2023-05-19T09:26:37;102836.59;;;19.44;39.34
60437;BME280;46289;51.992;4.498;2023-05-19T09:28:43;102829.00;;;19.35;40.74
60437;BME280;46289;51.992;4.498;2023-05-19T09:31:10;102834.78;;;19.63;40.06
60437;BME280;46289;51.992;4.498;2023-05-19T09:33:19;102839.66;;;19.74;40.65
60437;BME280;46289;51.992;4.498;2023-05-19T09:35:27;102835.56;;;19.86;39.78
60437;BME280;46289;51.992;4.498;2023-05-19T09:37:33;102829.16;;;19.50;38.71
60437;BME280;46289;51.992;4.498;2023-05-19T09:39:43;102831.72;;;19.91;39.43
60437;BME280;46289;51.992;4.498;2023-05-19T09:41:53;102826.59;;;20.23;38.96
60437;BME280;46289;51.992;4.498;2023-05-19T09:43:59;102826.28;;;20.66;39.16
60437;BME280;46289;51.992;4.498;2023-05-19T09:46:05;102840.06;;;19.65;39.10
60437;BME280;46289;51.992;4.498;2023-05-19T09:48:17;102838.28;;;19.84;37.81
60437;BME280;46289;51.992;4.498;2023-05-19T09:50:23;102828.97;;;20.29;37.68
60437;BME280;46289;51.992;4.498;2023-05-19T09:52:33;102830.97;;;20.60;37.62
60437;BME280;46289;51.992;4.498;2023-05-19T09:54:39;102828.16;;;20.64;37.55
60437;BME280;46289;51.992;4.498;2023-05-19T09:56:45;102819.69;;;20.19;37.06
60437;BME280;46289;51.992;4.498;2023-05-19T09:58:50;102834.16;;;20.50;36.48
60437;BME280;46289;51.992;4.498;2023-05-19T10:00:57;102824.44;;;20.49;36.05
60437;BME280;46289;51.992;4.498;2023-05-19T10:03:06;102828.63;;;20.18;36.43
60437;BME280;46289;51.992;4.498;2023-05-19T10:05:16;102824.81;;;20.24;37.16
60437;BME280;46289;51.992;4.498;2023-05-19T10:07:23;102823.03;;;20.05;36.70
60437;BME280;46289;51.992;4.498;2023-05-19T10:09:29;102816.53;;;20.65;37.60
60437;BME280;46289;51.992;4.498;2023-05-19T10:11:34;102822.34;;;20.73;36.17
60437;BME280;46289;51.992;4.498;2023-05-19T10:13:39;102821.91;;;20.98;36.81
60437;BME280;46289;51.992;4.498;2023-05-19T10:15:46;102828.34;;;20.42;36.55
60437;BME280;46289;51.992;4.498;2023-05-19T10:18:02;102826.84;;;20.18;37.20
60437;BME280;46289;51.992;4.498;2023-05-19T10:20:09;102828.69;;;20.16;36.81
60437;BME280;46289;51.992;4.498;2023-05-19T10:22:17;102820.31;;;20.24;37.31
60437;BME280;46289;51.992;4.498;2023-05-19T10:24:25;102833.19;;;20.16;37.83
60437;BME280;46289;51.992;4.498;2023-05-19T10:26:30;102818.00;;;20.88;37.58
60437;BME280;46289;51.992;4.498;2023-05-19T10:28:38;102817.28;;;21.01;37.27
60437;BME280;46289;51.992;4.498;2023-05-19T10:30:48;102811.75;;;20.17;38.65
60437;BME280;46289;51.992;4.498;2023-05-19T10:32:57;102803.41;;;20.60;38.40
60437;BME280;46289;51.992;4.498;2023-05-19T10:37:57;102813.66;;;20.50;37.71
60437;BME280;46289;51.992;4.498;2023-05-19T10:40:11;102807.56;;;20.83;37.25
60437;BME280;46289;51.992;4.498;2023-05-19T10:42:28;102802.91;;;20.69;36.07
60437;BME280;46289;51.992;4.498;2023-05-19T10:44:48;102796.06;;;21.14;36.11
60437;BME280;46289;51.992;4.498;2023-05-19T10:46:57;102799.78;;;20.78;35.29
60437;BME280;46289;51.992;4.498;2023-05-19T10:49:02;102797.63;;;20.85;35.51
60437;BME280;46289;51.992;4.498;2023-05-19T10:51:08;102799.09;;;20.75;35.60
60437;BME280;46289;51.992;4.498;2023-05-19T10:53:16;102799.38;;;20.51;36.23
60437;BME280;46289;51.992;4.498;2023-05-19T10:55:46;102803.06;;;20.49;35.45
60437;BME280;46289;51.992;4.498;2023-05-19T10:57:54;102795.13;;;20.30;36.40
60437;BME280;46289;51.992;4.498;2023-05-19T11:00:03;102794.38;;;20.63;36.11
60437;BME280;46289;51.992;4.498;2023-05-19T11:02:37;102792.16;;;20.36;35.30
60437;BME280;46289;51.992;4.498;2023-05-19T11:04:47;102790.75;;;20.64;35.72
60437;BME280;46289;51.992;4.498;2023-05-19T11:06:53;102792.34;;;20.14;34.87
60437;BME280;46289;51.992;4.498;2023-05-19T11:09:10;102789.78;;;20.47;35.20
60437;BME280;46289;51.992;4.498;2023-05-19T11:11:15;102774.34;;;21.04;34.84
60437;BME280;46289;51.992;4.498;2023-05-19T11:13:26;102788.53;;;20.89;34.56
60437;BME280;46289;51.992;4.498;2023-05-19T11:15:34;102784.59;;;20.96;34.53
60437;BME280;46289;51.992;4.498;2023-05-19T11:17:41;102778.66;;;21.07;34.12
60437;BME280;46289;51.992;4.498;2023-05-19T11:19:53;102780.38;;;21.08;35.31
60437;BME280;46289;51.992;4.498;2023-05-19T11:22:07;102789.16;;;20.94;34.78
60437;BME280;46289;51.992;4.498;2023-05-19T11:24:36;102786.75;;;21.05;34.50
60437;BME280;46289;51.992;4.498;2023-05-19T11:26:42;102782.16;;;21.25;35.22